createdAt,value
2023-10-23T00:00:12.260Z,11.09
2023-10-23T00:02:41.045Z,11.00
2023-10-23T00:05:09.982Z,10.86
2023-10-23T00:07:38.002Z,10.84
2023-10-23T00:10:06.810Z,10.74
2023-10-23T00:12:34.657Z,10.59
2023-10-23T00:15:03.807Z,10.80
2023-10-23T00:17:31.699Z,11.01
2023-10-23T00:20:02.981Z,10.93
2023-10-23T00:22:30.841Z,11.13
2023-10-23T00:24:58.713Z,11.11
2023-10-23T00:27:26.667Z,11.28
2023-10-23T00:29:55.170Z,11.07
2023-10-23T00:32:22.951Z,11.18
2023-10-23T00:34:50.907Z,11.17
2023-10-23T00:37:18.703Z,10.82
2023-10-23T00:39:46.586Z,10.96
2023-10-23T00:42:15.446Z,11.20
2023-10-23T00:44:43.359Z,10.97
2023-10-23T00:47:12.773Z,10.67
2023-10-23T00:49:40.844Z,10.77
2023-10-23T00:52:09.562Z,10.68
2023-10-23T00:54:40.202Z,10.91
2023-10-23T00:57:09.585Z,10.41
2023-10-23T00:59:39.213Z,10.58
2023-10-23T01:02:07.232Z,10.19
2023-10-23T01:04:36.125Z,10.13
2023-10-23T01:07:04.218Z,9.93
2023-10-23T01:09:32.069Z,10.10
2023-10-23T01:12:00.644Z,9.75
2023-10-23T01:14:30.385Z,9.94
2023-10-23T01:16:59.090Z,9.66
2023-10-23T01:19:28.887Z,10.41
2023-10-23T01:21:57.512Z,10.09
2023-10-23T01:24:29.273Z,10.09
2023-10-23T01:26:59.000Z,9.98
2023-10-23T01:29:27.732Z,9.72
2023-10-23T01:31:55.630Z,9.56
2023-10-23T01:34:23.573Z,9.82
2023-10-23T01:36:51.420Z,9.69
2023-10-23T01:39:20.106Z,9.98
2023-10-23T01:41:48.708Z,9.82
2023-10-23T01:44:16.556Z,10.00
2023-10-23T01:46:45.325Z,9.91
2023-10-23T01:49:13.949Z,10.21
2023-10-23T01:51:41.861Z,9.62
2023-10-23T01:54:10.499Z,9.49
2023-10-23T01:56:39.268Z,9.55
2023-10-23T01:59:07.078Z,9.41
2023-10-23T02:01:39.108Z,9.51
2023-10-23T02:04:08.185Z,8.87
2023-10-23T02:06:37.229Z,9.28
2023-10-23T02:09:06.448Z,10.05
2023-10-23T02:11:35.077Z,9.42
2023-10-23T02:14:04.721Z,9.38
2023-10-23T02:16:32.605Z,9.22
2023-10-23T02:19:00.459Z,9.29
2023-10-23T02:21:28.449Z,9.82
2023-10-23T02:23:57.287Z,9.97
2023-10-23T02:26:27.588Z,9.51
2023-10-23T02:28:56.498Z,9.49
2023-10-23T02:31:26.442Z,9.11
2023-10-23T02:33:54.404Z,9.56
2023-10-23T02:36:23.106Z,9.16
2023-10-23T02:38:50.991Z,9.13
2023-10-23T02:41:18.811Z,9.34
2023-10-23T02:43:47.251Z,9.67
2023-10-23T02:46:15.935Z,9.72
2023-10-23T02:48:44.973Z,9.38
2023-10-23T02:51:14.777Z,9.42
2023-10-23T02:53:42.614Z,10.09
2023-10-23T02:56:16.557Z,10.24
2023-10-23T02:58:44.399Z,9.51
2023-10-23T03:01:23.896Z,9.67
2023-10-23T03:03:53.069Z,9.64
2023-10-23T03:06:24.695Z,8.91
2023-10-23T03:08:53.513Z,9.01
2023-10-23T03:11:22.157Z,9.02
2023-10-23T03:13:51.911Z,8.92
2023-10-23T03:16:19.782Z,8.98
2023-10-23T03:18:47.672Z,8.83
2023-10-23T03:21:16.347Z,8.69
2023-10-23T03:23:44.201Z,8.87
2023-10-23T03:26:13.890Z,9.36
2023-10-23T03:28:41.709Z,9.11
2023-10-23T03:31:10.439Z,9.16
2023-10-23T03:33:39.026Z,9.27
2023-10-23T03:36:07.855Z,9.55
2023-10-23T03:38:35.855Z,9.51
2023-10-23T03:41:04.528Z,9.44
2023-10-23T03:43:33.745Z,9.35
2023-10-23T03:46:05.780Z,9.43
2023-10-23T03:48:39.089Z,9.67
2023-10-23T03:51:07.002Z,9.18
2023-10-23T03:53:34.906Z,9.01
2023-10-23T03:56:09.923Z,9.01
2023-10-23T03:58:38.237Z,9.11
2023-10-23T04:01:06.934Z,9.25
2023-10-23T04:03:35.621Z,9.39
2023-10-23T04:06:06.137Z,9.36
2023-10-23T04:08:33.957Z,9.25
2023-10-23T04:11:02.886Z,9.07
2023-10-23T04:13:31.073Z,8.77
2023-10-23T04:16:04.020Z,8.82
2023-10-23T04:18:33.396Z,8.80
2023-10-23T04:21:13.435Z,8.26
2023-10-23T04:23:42.491Z,8.24
2023-10-23T04:26:10.725Z,8.75
2023-10-23T04:28:39.475Z,9.29
2023-10-23T04:31:09.185Z,8.91
2023-10-23T04:33:38.835Z,8.77
2023-10-23T04:36:07.630Z,8.50
2023-10-23T04:38:35.431Z,8.53
2023-10-23T04:41:03.257Z,8.87
2023-10-23T04:43:31.989Z,8.55
2023-10-23T04:46:00.895Z,9.04
2023-10-23T04:48:29.092Z,8.82
2023-10-23T04:51:02.246Z,8.99
2023-10-23T04:53:31.564Z,9.06
2023-10-23T04:56:00.344Z,8.94
2023-10-23T04:58:31.077Z,8.78
2023-10-23T05:01:00.080Z,8.98
2023-10-23T05:03:29.508Z,8.81
2023-10-23T05:05:57.338Z,8.66
2023-10-23T05:08:25.188Z,8.37
2023-10-23T05:10:53.739Z,8.00
2023-10-23T05:13:21.722Z,8.68
2023-10-23T05:15:49.581Z,8.74
2023-10-23T05:18:18.339Z,8.94
2023-10-23T05:20:47.166Z,8.96
2023-10-23T05:23:15.026Z,8.86
2023-10-23T05:25:43.783Z,8.90
2023-10-23T05:28:12.554Z,9.04
2023-10-23T05:30:41.356Z,8.98
2023-10-23T05:33:10.216Z,9.00
2023-10-23T05:35:38.966Z,9.22
2023-10-23T05:38:08.537Z,9.39
2023-10-23T05:40:37.201Z,9.53
2023-10-23T05:43:06.245Z,9.35
2023-10-23T05:45:38.744Z,9.69
2023-10-23T05:48:07.685Z,9.84
2023-10-23T05:50:37.270Z,10.18
2023-10-23T05:53:06.011Z,12.74
2023-10-23T05:55:37.511Z,15.52
2023-10-23T05:58:07.074Z,15.25
2023-10-23T06:00:36.015Z,12.36
2023-10-23T06:03:04.821Z,13.29
2023-10-23T06:05:33.532Z,14.99
2023-10-23T06:08:02.228Z,14.87
2023-10-23T06:10:32.160Z,13.62
2023-10-23T06:13:00.823Z,12.44
2023-10-23T06:15:30.433Z,12.02
2023-10-23T06:17:59.268Z,11.89
2023-10-23T06:20:28.010Z,11.48
2023-10-23T06:22:56.704Z,11.08
2023-10-23T06:25:27.645Z,11.94
2023-10-23T06:27:56.812Z,12.54
2023-10-23T06:30:25.937Z,12.29
2023-10-23T06:32:55.583Z,12.57
2023-10-23T06:35:24.333Z,12.91
2023-10-23T06:37:53.189Z,12.94
2023-10-23T06:40:22.829Z,14.05
2023-10-23T06:42:52.919Z,14.87
2023-10-23T06:45:21.664Z,15.74
2023-10-23T06:47:51.090Z,16.43
2023-10-23T06:50:20.228Z,15.67
2023-10-23T06:52:48.985Z,14.90
2023-10-23T06:55:19.288Z,14.94
2023-10-23T06:57:48.982Z,15.47
2023-10-23T07:00:18.179Z,16.96
2023-10-23T07:05:18.499Z,15.03
2023-10-23T07:07:48.002Z,15.32
2023-10-23T07:10:17.515Z,14.91
2023-10-23T07:12:46.215Z,13.37
2023-10-23T07:15:15.129Z,13.56
2023-10-23T07:17:43.912Z,13.28
2023-10-23T07:20:13.508Z,14.79
2023-10-23T07:22:43.041Z,14.66
2023-10-23T07:25:13.258Z,13.95
2023-10-23T07:27:42.940Z,15.27
2023-10-23T07:30:12.938Z,15.06
2023-10-23T07:32:43.662Z,14.95
2023-10-23T07:35:14.910Z,15.69
2023-10-23T07:37:42.848Z,15.25
2023-10-23T07:40:12.624Z,16.18
2023-10-23T07:42:41.403Z,16.26
2023-10-23T07:45:11.186Z,16.10
2023-10-23T07:47:39.894Z,16.61
2023-10-23T07:50:09.506Z,15.97
2023-10-23T07:52:38.186Z,15.98
2023-10-23T07:55:07.656Z,16.70
2023-10-23T07:57:36.389Z,16.83
2023-10-23T08:00:07.534Z,16.94
2023-10-23T08:02:36.128Z,17.04
2023-10-23T08:05:06.354Z,16.88
2023-10-23T08:07:35.002Z,16.95
2023-10-23T08:10:03.764Z,17.35
2023-10-23T08:12:31.835Z,16.82
2023-10-23T08:14:59.645Z,17.68
2023-10-23T08:17:39.382Z,17.08
2023-10-23T08:20:11.042Z,17.13
2023-10-23T08:22:40.760Z,17.16
2023-10-23T08:25:09.470Z,16.91
2023-10-23T08:27:40.879Z,17.22
2023-10-23T08:30:11.631Z,17.67
2023-10-23T08:32:51.966Z,17.73
2023-10-23T08:35:23.516Z,17.82
2023-10-23T08:37:53.139Z,17.04
2023-10-23T08:40:24.223Z,18.10
2023-10-23T08:42:54.774Z,17.16
2023-10-23T08:45:23.395Z,17.83
2023-10-23T08:47:53.176Z,17.08
2023-10-23T08:50:23.177Z,17.96
2023-10-23T08:53:01.567Z,18.59
2023-10-23T08:55:31.277Z,17.88
2023-10-23T08:58:05.812Z,17.88
2023-10-23T09:00:35.752Z,18.43
2023-10-23T09:03:07.048Z,17.84
2023-10-23T09:05:35.678Z,18.47
2023-10-23T09:08:06.063Z,18.45
2023-10-23T09:10:34.705Z,18.80
2023-10-23T09:13:03.733Z,18.84
2023-10-23T09:15:32.472Z,18.99
2023-10-23T09:18:03.961Z,18.25
2023-10-23T09:20:32.742Z,18.68
2023-10-23T09:23:05.318Z,18.74
2023-10-23T09:25:35.390Z,19.46
2023-10-23T09:28:12.698Z,18.70
2023-10-23T09:30:43.926Z,19.08
2023-10-23T09:33:15.859Z,18.93
2023-10-23T09:35:45.532Z,18.49
2023-10-23T09:38:17.824Z,18.99
2023-10-23T09:40:46.851Z,19.00
2023-10-23T09:43:15.527Z,18.72
2023-10-23T09:45:44.821Z,19.57
2023-10-23T09:48:15.226Z,19.37
2023-10-23T09:50:45.912Z,19.04
2023-10-23T09:53:19.795Z,19.67
2023-10-23T09:55:52.858Z,19.39
2023-10-23T09:58:24.658Z,19.63
2023-10-23T10:00:58.337Z,20.02
2023-10-23T10:03:30.197Z,20.53
2023-10-23T10:06:12.386Z,19.90
2023-10-23T10:08:51.348Z,19.93
2023-10-23T10:11:20.203Z,20.38
2023-10-23T10:13:50.824Z,20.07
2023-10-23T10:16:20.939Z,19.89
2023-10-23T10:18:49.851Z,19.28
2023-10-23T10:21:24.179Z,19.83
2023-10-23T10:23:53.431Z,19.70
2023-10-23T10:26:24.242Z,19.72
2023-10-23T10:28:56.546Z,19.25
2023-10-23T10:31:28.591Z,19.33
2023-10-23T10:34:28.225Z,19.40
2023-10-23T10:36:48.673Z,20.12
2023-10-23T10:39:18.685Z,18.77
2023-10-23T10:41:47.446Z,19.77
2023-10-23T10:44:19.030Z,19.65
2023-10-23T10:46:54.490Z,20.03
2023-10-23T10:49:24.702Z,19.78
2023-10-23T10:51:53.276Z,19.81
2023-10-23T10:54:22.759Z,20.02
2023-10-23T10:56:53.155Z,19.83
2023-10-23T10:59:28.689Z,19.52
2023-10-23T11:01:57.663Z,19.97
2023-10-23T11:04:26.483Z,20.27
2023-10-23T11:06:55.247Z,19.31
2023-10-23T11:09:23.724Z,19.77
2023-10-23T11:11:52.175Z,20.34
2023-10-23T11:14:20.678Z,19.67
2023-10-23T11:16:49.189Z,20.27
2023-10-23T11:19:18.520Z,19.92
2023-10-23T11:21:47.093Z,19.91
2023-10-23T11:24:16.039Z,19.91
2023-10-23T11:26:47.001Z,19.84
2023-10-23T11:29:18.114Z,20.07
2023-10-23T11:31:46.751Z,19.45
2023-10-23T11:34:18.378Z,19.32
2023-10-23T11:36:51.074Z,19.81
2023-10-23T11:39:20.340Z,20.10
2023-10-23T11:42:01.230Z,19.74
2023-10-23T11:44:37.893Z,19.91
2023-10-23T11:47:09.380Z,19.73
2023-10-23T11:49:39.313Z,20.08
2023-10-23T11:52:09.290Z,19.98
2023-10-23T11:54:38.915Z,20.70
2023-10-23T11:57:08.510Z,20.02
2023-10-23T11:59:42.093Z,20.64
2023-10-23T12:02:11.723Z,20.72
2023-10-23T12:04:41.377Z,20.39
2023-10-23T12:07:11.210Z,20.28
2023-10-23T12:09:40.997Z,20.30
2023-10-23T12:12:09.584Z,20.90
2023-10-23T12:14:38.785Z,20.09
2023-10-23T12:17:10.111Z,20.77
2023-10-23T12:19:38.749Z,19.74
2023-10-23T12:22:08.565Z,20.47
2023-10-23T12:24:37.086Z,20.42
2023-10-23T12:27:05.612Z,20.41
2023-10-23T12:29:34.114Z,20.32
2023-10-23T12:32:05.582Z,20.73
2023-10-23T12:34:37.146Z,20.77
2023-10-23T12:37:06.909Z,20.92
2023-10-23T12:39:35.506Z,20.51
2023-10-23T12:42:04.549Z,20.77
2023-10-23T12:44:34.163Z,20.27
2023-10-23T12:47:02.738Z,20.29
2023-10-23T12:49:31.316Z,20.28
2023-10-23T12:51:59.922Z,20.82
2023-10-23T12:54:28.470Z,20.81
2023-10-23T12:56:59.482Z,20.62
2023-10-23T12:59:28.034Z,20.45
2023-10-23T13:01:57.755Z,21.01
2023-10-23T13:04:27.649Z,21.13
2023-10-23T13:06:57.484Z,20.97
2023-10-23T13:09:27.036Z,20.48
2023-10-23T13:11:55.701Z,21.02
2023-10-23T13:14:24.330Z,20.81
2023-10-23T13:16:54.308Z,20.76
2023-10-23T13:19:56.514Z,21.04
2023-10-23T13:22:26.080Z,21.01
2023-10-23T13:24:55.634Z,20.68
2023-10-23T13:27:25.180Z,20.56
2023-10-23T13:29:54.747Z,20.39
2023-10-23T13:32:23.783Z,20.74
2023-10-23T13:34:52.287Z,20.99
2023-10-23T13:37:22.251Z,21.21
2023-10-23T13:39:51.809Z,20.72
2023-10-23T13:42:21.328Z,20.59
2023-10-23T13:44:50.120Z,20.46
2023-10-23T13:47:19.709Z,20.58
2023-10-23T13:49:49.521Z,20.44
2023-10-23T13:52:20.928Z,20.70
2023-10-23T13:54:50.523Z,20.88
2023-10-23T13:57:20.336Z,20.78
2023-10-23T13:59:49.852Z,21.02
2023-10-23T14:02:19.472Z,20.58
2023-10-23T14:04:50.513Z,20.54
2023-10-23T14:07:21.799Z,20.51
2023-10-23T14:09:53.044Z,20.55
2023-10-23T14:12:22.745Z,20.61
2023-10-23T14:14:52.328Z,20.49
2023-10-23T14:17:22.029Z,20.43
2023-10-23T14:19:50.654Z,20.48
2023-10-23T14:22:19.431Z,20.59
2023-10-23T14:24:49.653Z,20.29
2023-10-23T14:27:18.585Z,20.32
2023-10-23T14:29:48.244Z,19.94
2023-10-23T14:32:16.792Z,20.02
2023-10-23T14:34:45.360Z,19.93
2023-10-23T14:37:13.886Z,19.78
2023-10-23T14:39:43.612Z,19.91
2023-10-23T14:42:12.148Z,19.84
2023-10-23T14:44:42.269Z,19.71
2023-10-23T14:47:13.694Z,19.86
2023-10-23T14:49:43.444Z,19.80
2023-10-23T14:52:13.118Z,19.69
2023-10-23T14:54:42.941Z,19.63
2023-10-23T14:57:12.481Z,19.48
2023-10-23T14:59:42.248Z,19.22
2023-10-23T15:02:10.948Z,18.91
2023-10-23T15:04:39.677Z,18.90
2023-10-23T15:07:08.423Z,18.63
2023-10-23T15:09:37.258Z,18.40
2023-10-23T15:12:06.548Z,18.25
2023-10-23T15:14:35.113Z,18.03
2023-10-23T15:17:04.366Z,17.86
2023-10-23T15:19:33.136Z,17.83
2023-10-23T15:22:01.817Z,17.91
2023-10-23T15:24:29.629Z,17.31
2023-10-23T15:26:57.443Z,16.98
2023-10-23T15:29:27.111Z,16.95
2023-10-23T15:31:56.685Z,16.79
2023-10-23T15:34:28.330Z,16.64
2023-10-23T15:36:57.977Z,16.63
2023-10-23T15:39:25.806Z,16.35
2023-10-23T15:41:53.880Z,16.33
2023-10-23T15:44:21.933Z,16.20
2023-10-23T15:46:49.871Z,16.22
2023-10-23T15:49:18.045Z,16.08
2023-10-23T15:51:46.654Z,15.95
2023-10-23T15:54:18.608Z,15.77
2023-10-23T15:56:48.986Z,15.73
2023-10-23T15:59:17.311Z,15.69
2023-10-23T16:01:45.339Z,15.59
2023-10-23T16:04:13.264Z,15.51
2023-10-23T16:06:45.101Z,15.42
2023-10-23T16:09:22.453Z,15.17
2023-10-23T16:12:09.780Z,15.15
2023-10-23T16:14:53.599Z,15.26
2023-10-23T16:18:00.803Z,15.50
2023-10-23T16:20:29.783Z,15.57
2023-10-23T16:22:59.746Z,15.32
2023-10-23T16:25:29.406Z,14.86
2023-10-23T16:28:00.264Z,14.65
2023-10-23T16:30:29.869Z,14.67
2023-10-23T16:32:57.853Z,14.60
2023-10-23T16:35:29.646Z,14.66
2023-10-23T16:37:57.615Z,14.64
2023-10-23T16:40:29.168Z,14.60
2023-10-23T16:42:58.879Z,14.30
2023-10-23T16:45:32.909Z,14.15
2023-10-23T16:48:02.194Z,14.01
2023-10-23T16:50:32.012Z,13.83
2023-10-23T16:53:02.197Z,13.94
2023-10-23T16:55:30.909Z,13.84
2023-10-23T16:58:00.687Z,13.36
2023-10-23T17:00:28.684Z,13.64
2023-10-23T17:03:01.466Z,14.36
2023-10-23T17:05:36.527Z,13.94
2023-10-23T17:08:05.796Z,14.06
2023-10-23T17:10:35.872Z,13.51
2023-10-23T17:13:05.732Z,13.35
2023-10-23T17:15:41.839Z,13.22
2023-10-23T17:18:11.584Z,13.52
2023-10-23T17:20:42.939Z,12.82
2023-10-23T17:23:12.908Z,13.03
2023-10-23T17:25:50.263Z,13.32
2023-10-23T17:28:19.143Z,13.27
2023-10-23T17:31:02.478Z,13.30
2023-10-23T17:33:32.782Z,13.12
2023-10-23T17:36:05.453Z,13.17
2023-10-23T17:38:37.295Z,12.96
2023-10-23T17:41:18.259Z,12.83
2023-10-23T17:43:47.016Z,12.93
2023-10-23T17:46:16.254Z,12.95
2023-10-23T17:48:47.240Z,13.21
2023-10-23T17:51:17.699Z,13.55
2023-10-23T17:54:01.729Z,13.22
2023-10-23T17:56:37.202Z,12.74
2023-10-23T17:59:07.211Z,13.11
2023-10-23T18:04:07.393Z,13.01
2023-10-23T18:06:38.799Z,13.09
2023-10-23T18:09:10.930Z,13.17
2023-10-23T18:11:42.431Z,13.53
2023-10-23T18:14:15.723Z,13.09
2023-10-23T18:16:46.900Z,13.34
2023-10-23T18:19:17.081Z,13.26
2023-10-23T18:21:49.585Z,13.26
2023-10-23T18:24:20.617Z,13.47
2023-10-23T18:26:50.213Z,13.43
2023-10-23T18:29:19.013Z,13.49
2023-10-23T18:31:49.800Z,13.42
2023-10-23T18:34:19.274Z,13.16
2023-10-23T18:36:49.129Z,13.08
2023-10-23T18:39:17.940Z,12.97
2023-10-23T18:41:47.526Z,12.91
2023-10-23T18:44:28.855Z,12.84
2023-10-23T18:47:05.358Z,12.66
2023-10-23T18:49:35.409Z,12.75
2023-10-23T18:52:10.766Z,13.01
2023-10-23T18:54:42.363Z,13.18
2023-10-23T18:57:13.922Z,13.09
2023-10-23T18:59:43.614Z,13.44
2023-10-23T19:02:15.110Z,13.64
2023-10-23T19:04:44.587Z,13.34
2023-10-23T19:07:14.514Z,13.53
2023-10-23T19:09:44.109Z,13.15
2023-10-23T19:12:13.704Z,13.45
2023-10-23T19:14:45.517Z,13.21
2023-10-23T19:17:28.886Z,13.45
2023-10-23T19:20:06.793Z,13.34
2023-10-23T19:22:37.309Z,13.33
2023-10-23T19:25:08.664Z,13.34
2023-10-23T19:27:37.493Z,13.42
2023-10-23T19:30:12.924Z,13.50
2023-10-23T19:32:43.066Z,13.48
2023-10-23T19:35:14.211Z,13.05
2023-10-23T19:37:43.681Z,13.46
2023-10-23T19:40:13.958Z,12.80
2023-10-23T19:42:44.562Z,13.14
2023-10-23T19:45:14.238Z,12.81
2023-10-23T19:47:43.616Z,12.46
2023-10-23T19:50:13.634Z,12.62
2023-10-23T19:52:45.547Z,12.86
2023-10-23T19:55:45.297Z,12.58
2023-10-23T19:58:06.288Z,12.46
2023-10-23T20:00:36.052Z,12.36
2023-10-23T20:03:06.490Z,12.34
2023-10-23T20:05:35.399Z,12.28
2023-10-23T20:08:05.957Z,12.02
2023-10-23T20:10:35.728Z,12.16
2023-10-23T20:13:05.962Z,12.41
2023-10-23T20:15:36.902Z,12.49
2023-10-23T20:18:06.529Z,12.58
2023-10-23T20:20:36.188Z,12.79
2023-10-23T20:23:05.101Z,12.70
2023-10-23T20:25:34.520Z,12.61
2023-10-23T20:28:05.596Z,13.18
2023-10-23T20:30:35.287Z,13.13
2023-10-23T20:33:04.963Z,12.54
2023-10-23T20:35:33.783Z,12.23
2023-10-23T20:38:03.572Z,12.19
2023-10-23T20:40:37.247Z,12.69
2023-10-23T20:43:07.178Z,12.37
2023-10-23T20:45:39.653Z,12.06
2023-10-23T20:48:08.520Z,12.38
2023-10-23T20:50:41.679Z,12.47
2023-10-23T20:53:10.393Z,11.96
2023-10-23T20:55:39.958Z,11.82
2023-10-23T20:58:09.589Z,11.96
2023-10-23T21:00:38.536Z,12.24
2023-10-23T21:03:09.178Z,12.22
2023-10-23T21:05:39.687Z,12.22
2023-10-23T21:08:09.285Z,12.23
2023-10-23T21:10:38.914Z,12.26
2023-10-23T21:13:08.621Z,12.49
2023-10-23T21:15:37.421Z,12.26
2023-10-23T21:18:07.107Z,12.25
2023-10-23T21:20:36.642Z,12.34
2023-10-23T21:23:07.105Z,12.18
2023-10-23T21:25:35.937Z,12.01
2023-10-23T21:28:05.820Z,12.43
2023-10-23T21:30:34.587Z,11.94
2023-10-23T21:33:03.904Z,12.01
2023-10-23T21:35:33.481Z,12.50
2023-10-23T21:38:02.288Z,12.46
2023-10-23T21:40:30.999Z,12.20
2023-10-23T21:42:59.793Z,12.00
2023-10-23T21:45:28.633Z,12.38
2023-10-23T21:47:57.496Z,12.03
2023-10-23T21:50:26.554Z,11.79
2023-10-23T21:52:56.538Z,11.93
2023-10-23T21:55:26.097Z,11.93
2023-10-23T21:57:55.250Z,12.19
2023-10-23T22:00:32.280Z,12.52
2023-10-23T22:03:03.701Z,12.52
2023-10-23T22:05:33.251Z,12.40
2023-10-23T22:08:02.489Z,12.61
2023-10-23T22:10:32.274Z,12.86
2023-10-23T22:13:02.113Z,12.59
2023-10-23T22:15:30.898Z,12.68
2023-10-23T22:17:59.659Z,12.24
2023-10-23T22:20:28.663Z,11.95
2023-10-23T22:22:57.355Z,11.98
2023-10-23T22:25:26.173Z,11.87
2023-10-23T22:27:54.936Z,11.99
2023-10-23T22:30:24.627Z,12.06
2023-10-23T22:33:07.906Z,11.89
2023-10-23T22:35:42.905Z,12.46
2023-10-23T22:38:14.310Z,12.43
2023-10-23T22:40:43.783Z,12.29
2023-10-23T22:43:13.294Z,12.15
2023-10-23T22:45:51.384Z,12.08
2023-10-23T22:48:31.158Z,11.94
2023-10-23T22:51:00.411Z,11.94
2023-10-23T22:53:30.702Z,11.75
2023-10-23T22:56:02.938Z,11.75
2023-10-23T22:58:33.062Z,11.70
2023-10-23T23:01:03.210Z,11.69
2023-10-23T23:03:33.569Z,11.63
2023-10-23T23:06:07.585Z,11.69
2023-10-23T23:08:44.142Z,11.55
2023-10-23T23:11:13.727Z,11.54
2023-10-23T23:13:43.963Z,11.43
2023-10-23T23:16:13.280Z,11.42
2023-10-23T23:18:48.554Z,11.61
2023-10-23T23:21:18.472Z,11.60
2023-10-23T23:23:48.124Z,11.26
2023-10-23T23:26:16.897Z,11.40
2023-10-23T23:28:45.686Z,11.71
2023-10-23T23:31:14.498Z,11.46
2023-10-23T23:33:43.163Z,11.19
2023-10-23T23:36:11.870Z,11.28
2023-10-23T23:38:41.369Z,11.73
2023-10-23T23:41:10.123Z,11.48
2023-10-23T23:43:38.849Z,11.55
2023-10-23T23:46:07.765Z,11.07
2023-10-23T23:48:36.477Z,11.07
2023-10-23T23:51:05.517Z,11.35
2023-10-23T23:53:34.359Z,10.80
2023-10-23T23:56:02.371Z,11.39
2023-10-23T23:58:31.115Z,11.48
